createdAt,value
2023-02-27T00:01:25.495Z,-1.91
2023-02-27T00:06:28.584Z,-2.06
2023-02-27T00:11:32.030Z,-2.19
2023-02-27T00:16:33.797Z,-2.24
2023-02-27T00:21:38.250Z,-2.40
2023-02-27T00:26:41.840Z,-2.30
2023-02-27T00:31:43.880Z,-2.44
2023-02-27T00:36:46.168Z,-2.42
2023-02-27T00:41:49.565Z,-2.46
2023-02-27T00:46:51.674Z,-2.61
2023-02-27T00:51:53.992Z,-2.70
2023-02-27T00:56:57.483Z,-2.89
2023-02-27T01:01:59.688Z,-3.17
2023-02-27T01:07:02.203Z,-3.40
2023-02-27T01:12:06.046Z,-3.59
2023-02-27T01:17:07.887Z,-3.57
2023-02-27T01:22:09.666Z,-3.63
2023-02-27T01:27:12.902Z,-3.79
2023-02-27T01:32:15.229Z,-3.91
2023-02-27T01:37:17.469Z,-4.05
2023-02-27T01:42:24.383Z,-3.95
2023-02-27T01:47:26.654Z,-4.04
2023-02-27T01:52:31.468Z,-4.10
2023-02-27T01:57:35.550Z,-4.11
2023-02-27T02:02:39.988Z,-4.23
2023-02-27T02:07:44.505Z,-4.06
2023-02-27T02:12:48.186Z,-4.11
2023-02-27T02:18:03.184Z,-4.30
2023-02-27T02:23:45.524Z,-4.27
2023-02-27T02:29:31.303Z,-4.37
2023-02-27T02:35:20.189Z,-4.41
2023-02-27T02:40:35.383Z,-4.42
2023-02-27T02:45:48.593Z,-4.41
2023-02-27T02:50:57.790Z,-4.47
2023-02-27T02:56:07.786Z,-4.53
2023-02-27T03:01:15.508Z,-4.85
2023-02-27T03:06:22.578Z,-4.89
2023-02-27T03:11:30.474Z,-5.03
2023-02-27T03:16:37.437Z,-5.04
2023-02-27T03:21:44.456Z,-5.20
2023-02-27T03:26:52.120Z,-5.05
2023-02-27T03:32:00.809Z,-4.94
2023-02-27T03:37:08.669Z,-5.04
2023-02-27T03:42:18.644Z,-5.20
2023-02-27T03:47:21.386Z,-5.15
2023-02-27T03:52:26.155Z,-5.16
2023-02-27T03:57:30.837Z,-5.30
2023-02-27T04:02:33.599Z,-5.24
2023-02-27T04:07:42.703Z,-5.20
2023-02-27T04:13:16.393Z,-5.19
2023-02-27T04:18:32.433Z,-5.23
2023-02-27T04:23:39.750Z,-5.32
2023-02-27T04:28:48.224Z,-5.27
2023-02-27T04:33:57.860Z,-5.36
2023-02-27T04:39:05.207Z,-5.53
2023-02-27T04:44:10.661Z,-5.61
2023-02-27T04:49:18.827Z,-5.62
2023-02-27T04:54:27.223Z,-5.53
2023-02-27T04:59:34.519Z,-5.56
2023-02-27T05:04:40.655Z,-5.41
2023-02-27T05:09:47.510Z,-5.45
2023-02-27T05:14:56.197Z,-5.60
2023-02-27T05:19:58.933Z,-5.62
2023-02-27T05:25:09.593Z,-5.65
2023-02-27T05:30:19.923Z,-5.77
2023-02-27T05:35:29.386Z,-5.68
2023-02-27T05:40:35.655Z,-5.77
2023-02-27T05:45:41.340Z,-5.71
2023-02-27T05:50:45.911Z,-5.91
2023-02-27T05:55:51.415Z,-5.74
2023-02-27T06:00:57.909Z,-5.76
2023-02-27T06:06:02.896Z,-5.53
2023-02-27T06:11:05.575Z,-5.45
2023-02-27T06:16:10.999Z,-5.33
2023-02-27T06:21:13.322Z,-5.30
2023-02-27T06:26:15.505Z,-5.31
2023-02-27T06:31:19.048Z,-5.23
2023-02-27T06:36:21.444Z,-5.15
2023-02-27T06:41:23.806Z,-5.05
2023-02-27T06:46:27.442Z,-5.02
2023-02-27T06:51:29.741Z,-4.42
2023-02-27T06:56:31.479Z,-3.69
2023-02-27T07:01:35.205Z,-3.53
2023-02-27T07:07:33.841Z,-3.41
2023-02-27T07:12:01.953Z,-3.38
2023-02-27T07:17:05.696Z,-3.23
2023-02-27T07:22:07.443Z,-3.20
2023-02-27T07:27:09.409Z,-2.96
2023-02-27T07:32:12.625Z,-2.66
2023-02-27T07:37:14.808Z,-2.12
2023-02-27T07:42:16.502Z,-1.89
2023-02-27T07:47:19.999Z,-1.64
2023-02-27T07:52:22.562Z,-1.43
2023-02-27T07:57:24.891Z,-1.40
2023-02-27T08:02:28.563Z,-1.33
2023-02-27T08:07:30.901Z,-1.07
2023-02-27T08:12:33.069Z,-0.94
2023-02-27T08:17:36.762Z,-1.06
2023-02-27T08:22:38.819Z,-1.14
2023-02-27T08:27:40.963Z,-1.18
2023-02-27T08:32:44.877Z,-1.20
2023-02-27T08:37:46.962Z,-1.17
2023-02-27T08:42:48.992Z,-0.77
2023-02-27T08:47:52.142Z,-0.66
2023-02-27T08:52:54.200Z,-0.35
2023-02-27T08:57:55.982Z,0.32
2023-02-27T09:02:59.303Z,-0.22
2023-02-27T09:08:01.304Z,0.12
2023-02-27T09:13:03.768Z,0.17
2023-02-27T09:18:07.101Z,0.51
2023-02-27T09:23:09.096Z,0.89
2023-02-27T09:28:11.378Z,1.32
2023-02-27T09:33:14.796Z,1.42
2023-02-27T09:38:16.631Z,1.17
2023-02-27T09:43:24.157Z,1.44
2023-02-27T09:48:32.744Z,1.84
2023-02-27T09:53:38.904Z,2.23
2023-02-27T09:58:51.787Z,4.07
2023-02-27T10:04:25.518Z,4.83
2023-02-27T10:09:38.094Z,3.64
2023-02-27T10:14:44.540Z,4.86
2023-02-27T10:19:50.039Z,6.07
2023-02-27T10:24:58.876Z,4.55
2023-02-27T10:30:28.369Z,4.28
2023-02-27T10:35:36.230Z,5.04
2023-02-27T10:40:40.671Z,4.13
2023-02-27T10:45:42.627Z,4.16
2023-02-27T10:50:50.641Z,4.01
2023-02-27T10:56:01.557Z,4.51
2023-02-27T11:01:06.671Z,5.43
2023-02-27T11:06:20.952Z,6.05
2023-02-27T11:11:28.463Z,6.05
2023-02-27T11:16:46.323Z,6.06
2023-02-27T11:22:00.136Z,5.83
2023-02-27T11:27:04.893Z,5.81
2023-02-27T11:32:13.912Z,6.01
2023-02-27T11:37:29.620Z,6.47
2023-02-27T11:42:34.750Z,6.56
2023-02-27T11:47:40.349Z,7.13
2023-02-27T11:52:50.012Z,7.51
2023-02-27T11:58:01.575Z,5.99
2023-02-27T12:03:16.752Z,4.86
2023-02-27T12:08:28.685Z,4.73
2023-02-27T12:13:36.596Z,4.67
2023-02-27T12:18:43.231Z,4.74
2023-02-27T12:23:51.464Z,4.71
2023-02-27T12:29:00.044Z,4.68
2023-02-27T12:34:08.511Z,4.48
2023-02-27T12:39:18.042Z,4.35
2023-02-27T12:44:34.236Z,4.31
2023-02-27T12:49:47.135Z,4.36
2023-02-27T12:54:58.181Z,4.41
2023-02-27T13:00:10.610Z,4.32
2023-02-27T13:05:32.088Z,4.32
2023-02-27T13:10:44.985Z,4.49
2023-02-27T13:15:54.207Z,4.60
2023-02-27T13:21:03.826Z,4.29
2023-02-27T13:26:14.967Z,4.06
2023-02-27T13:31:27.302Z,4.10
2023-02-27T13:36:37.234Z,4.25
2023-02-27T13:41:40.759Z,4.29
2023-02-27T13:46:42.637Z,4.26
2023-02-27T13:51:46.831Z,4.10
2023-02-27T13:57:05.466Z,4.34
2023-02-27T14:02:30.359Z,4.33
2023-02-27T14:07:34.680Z,4.29
2023-02-27T14:12:45.531Z,4.38
2023-02-27T14:17:52.509Z,4.15
2023-02-27T14:23:19.079Z,4.12
2023-02-27T14:28:29.952Z,4.17
2023-02-27T14:33:41.060Z,4.31
2023-02-27T14:38:43.032Z,4.05
2023-02-27T14:43:51.742Z,3.97
2023-02-27T14:48:55.494Z,3.99
2023-02-27T14:54:04.150Z,4.03
2023-02-27T14:59:22.184Z,3.91
2023-02-27T15:04:27.923Z,3.84
2023-02-27T15:09:41.213Z,3.69
2023-02-27T15:14:48.462Z,3.51
2023-02-27T15:19:52.582Z,3.53
2023-02-27T15:24:56.324Z,3.73
2023-02-27T15:30:00.952Z,3.72
2023-02-27T15:35:06.126Z,3.46
2023-02-27T15:40:15.549Z,3.43
2023-02-27T15:45:22.046Z,3.37
2023-02-27T15:50:28.191Z,3.39
2023-02-27T15:55:34.418Z,3.35
2023-02-27T16:00:38.213Z,3.33
2023-02-27T16:05:51.607Z,3.27
2023-02-27T16:10:54.356Z,3.17
2023-02-27T16:16:03.109Z,3.05
2023-02-27T16:21:11.443Z,2.90
2023-02-27T16:26:26.446Z,2.89
2023-02-27T16:31:32.608Z,2.76
2023-02-27T16:36:34.923Z,2.67
2023-02-27T16:41:37.120Z,2.55
2023-02-27T16:46:40.355Z,2.45
2023-02-27T16:51:42.128Z,2.32
2023-02-27T16:56:45.305Z,2.19
2023-02-27T17:01:48.991Z,2.09
2023-02-27T17:06:52.018Z,1.96
2023-02-27T17:11:54.727Z,1.86
2023-02-27T17:17:01.046Z,1.79
2023-02-27T17:22:03.203Z,1.73
2023-02-27T17:27:05.865Z,1.66
2023-02-27T17:32:09.485Z,1.54
2023-02-27T17:37:11.977Z,1.46
2023-02-27T17:42:14.086Z,1.41
2023-02-27T17:47:18.173Z,1.30
2023-02-27T17:52:20.287Z,1.20
2023-02-27T17:57:22.458Z,1.20
2023-02-27T18:02:29.450Z,1.11
2023-02-27T18:07:32.029Z,1.06
2023-02-27T18:12:34.010Z,0.89
2023-02-27T18:17:37.468Z,0.82
2023-02-27T18:22:39.679Z,0.68
2023-02-27T18:27:41.873Z,0.59
2023-02-27T18:32:45.315Z,0.55
2023-02-27T18:37:47.353Z,0.53
2023-02-27T18:42:49.462Z,0.53
2023-02-27T18:47:53.640Z,0.49
2023-02-27T18:52:56.901Z,0.51
2023-02-27T18:57:59.242Z,0.80
2023-02-27T19:03:02.649Z,0.94
2023-02-27T19:08:05.789Z,1.00
2023-02-27T19:13:08.099Z,0.96
2023-02-27T19:18:14.508Z,0.89
2023-02-27T19:23:16.496Z,0.89
2023-02-27T19:28:18.349Z,1.00
2023-02-27T19:33:21.899Z,1.03
2023-02-27T19:38:23.898Z,1.05
2023-02-27T19:43:26.044Z,1.05
2023-02-27T19:48:29.721Z,1.00
2023-02-27T19:53:33.308Z,0.99
2023-02-27T19:58:36.296Z,0.95
2023-02-27T20:03:41.803Z,0.86
2023-02-27T20:08:46.176Z,0.82
2023-02-27T20:13:49.193Z,0.75
2023-02-27T20:18:53.034Z,0.73
2023-02-27T20:23:55.824Z,0.71
2023-02-27T20:29:01.791Z,0.59
2023-02-27T20:34:07.039Z,0.54
2023-02-27T20:39:12.113Z,0.28
2023-02-27T20:44:14.610Z,0.07
2023-02-27T20:49:18.298Z,-0.08
2023-02-27T20:54:21.097Z,-0.16
2023-02-27T20:59:24.592Z,-0.24
2023-02-27T21:04:31.039Z,-0.31
2023-02-27T21:09:33.803Z,-0.26
2023-02-27T21:14:35.687Z,-0.23
2023-02-27T21:19:39.403Z,-0.24
2023-02-27T21:24:41.494Z,-0.29
2023-02-27T21:29:43.606Z,-0.42
2023-02-27T21:34:47.377Z,-0.52
2023-02-27T21:39:49.477Z,-0.66
2023-02-27T21:44:51.623Z,-0.67
2023-02-27T21:49:55.191Z,-0.67
2023-02-27T21:54:57.395Z,-0.71
2023-02-27T21:59:59.673Z,-0.73
2023-02-27T22:05:02.922Z,-0.81
2023-02-27T22:10:06.045Z,-0.75
2023-02-27T22:15:09.391Z,-0.75
2023-02-27T22:20:13.647Z,-0.72
2023-02-27T22:25:15.593Z,-0.74
2023-02-27T22:30:18.222Z,-0.68
2023-02-27T22:35:21.404Z,-0.59
2023-02-27T22:40:23.508Z,-0.69
2023-02-27T22:45:25.420Z,-0.71
2023-02-27T22:50:28.901Z,-0.67
2023-02-27T22:55:30.679Z,-0.77
2023-02-27T23:00:32.449Z,-0.77
2023-02-27T23:05:35.924Z,-0.84
2023-02-27T23:10:38.277Z,-0.81
2023-02-27T23:15:40.437Z,-0.87
2023-02-27T23:20:43.610Z,-0.80
2023-02-27T23:25:45.904Z,-0.77
2023-02-27T23:30:49.087Z,-0.85
2023-02-27T23:35:52.530Z,-0.84
2023-02-27T23:40:55.202Z,-0.76
2023-02-27T23:45:57.248Z,-0.74
2023-02-27T23:51:02.345Z,-0.80
2023-02-27T23:56:12.900Z,-0.75
